Time;durP1;ratioP1;P1;durP2;ratioP2;P2;SDS_P1;SDS_P2;PMS_P1;PMS_P2;Temp;Humidity;BMP_temperature;BMP_pressure;BME280_temperature;BME280_humidity;BME280_pressure;Samples;Min_cycle;Max_cycle;Signal;HPM_P1;HPM_P2
2021/06/25 00:00:11;;;;;;;9.77;8.00;;;13.80;99.90;;;;;;4954713;29;20237;-79
2021/06/25 00:02:38;;;;;;;12.97;8.33;;;13.60;99.90;;;;;;4954585;29;20207;-80
2021/06/25 00:05:07;;;;;;;11.53;8.57;;;13.50;99.90;;;;;;4955884;29;20227;-79
2021/06/25 00:07:34;;;;;;;10.53;8.20;;;13.40;99.90;;;;;;4955727;29;20238;-79
2021/06/25 00:10:03;;;;;;;11.17;9.00;;;13.30;99.90;;;;;;4955807;29;20238;-80
2021/06/25 00:12:30;;;;;;;11.40;9.50;;;13.30;99.90;;;;;;4939550;29;20295;-79
2021/06/25 00:14:57;;;;;;;12.93;9.10;;;13.40;99.90;;;;;;4949440;29;20231;-79
2021/06/25 00:17:24;;;;;;;11.63;9.80;;;13.40;99.90;;;;;;4949547;29;20646;-80
2021/06/25 00:19:51;;;;;;;12.67;10.00;;;13.40;99.90;;;;;;4954866;29;20199;-79
2021/06/25 00:22:18;;;;;;;11.37;9.90;;;13.40;99.90;;;;;;4946252;29;20262;-79
2021/06/25 00:24:45;;;;;;;12.87;10.10;;;13.40;99.90;;;;;;4948429;29;20235;-80
2021/06/25 00:27:14;;;;;;;12.13;10.17;;;13.50;99.90;;;;;;4950653;29;20199;-80
2021/06/25 00:29:40;;;;;;;10.87;9.47;;;13.60;99.90;;;;;;4954734;28;20306;-79
2021/06/25 00:32:08;;;;;;;11.77;9.40;;;13.70;99.90;;;;;;4948484;29;20617;-80
2021/06/25 00:34:35;;;;;;;11.73;9.73;;;13.80;99.90;;;;;;4955332;29;20736;-80
2021/06/25 00:37:02;;;;;;;12.73;9.33;;;13.90;99.90;;;;;;4941060;29;20618;-79
2021/06/25 00:39:29;;;;;;;11.13;8.93;;;13.90;99.90;;;;;;4936144;29;20255;-80
2021/06/25 00:41:57;;;;;;;10.77;9.10;;;14.00;99.90;;;;;;4946247;29;20206;-79
2021/06/25 00:44:25;;;;;;;13.93;10.00;;;14.10;99.90;;;;;;4948036;29;20200;-80
2021/06/25 00:46:52;;;;;;;11.23;9.20;;;14.20;99.90;;;;;;4945966;29;20235;-79
2021/06/25 00:49:19;;;;;;;13.17;9.90;;;14.20;99.90;;;;;;4947627;29;20230;-79
2021/06/25 00:51:46;;;;;;;12.97;9.90;;;14.20;99.90;;;;;;4954330;29;20315;-80
2021/06/25 00:54:14;;;;;;;11.20;9.50;;;14.20;99.90;;;;;;4948300;28;20238;-80
2021/06/25 00:56:42;;;;;;;11.30;9.40;;;14.30;99.90;;;;;;4935948;29;20283;-79
2021/06/25 00:59:08;;;;;;;10.37;8.93;;;14.30;99.90;;;;;;4937230;29;20287;-80
2021/06/25 01:01:37;;;;;;;10.07;8.87;;;14.20;99.90;;;;;;4942741;29;20294;-80
2021/06/25 01:04:04;;;;;;;11.70;9.07;;;14.10;99.90;;;;;;4942389;29;20263;-80
2021/06/25 01:06:31;;;;;;;9.87;8.47;;;14.00;99.90;;;;;;4955298;29;20203;-80
2021/06/25 01:08:58;;;;;;;10.17;8.53;;;14.00;99.90;;;;;;4941367;29;20231;-80
2021/06/25 01:11:28;;;;;;;10.13;8.83;;;14.00;99.90;;;;;;4954308;29;20944;-79
2021/06/25 01:13:55;;;;;;;10.30;8.33;;;14.00;99.90;;;;;;4950316;29;20207;-79
2021/06/25 01:16:22;;;;;;;11.30;9.03;;;14.10;99.90;;;;;;4954478;29;20290;-80
2021/06/25 01:18:51;;;;;;;11.17;8.80;;;14.20;99.90;;;;;;4940290;29;20287;-78
2021/06/25 01:21:19;;;;;;;9.87;8.40;;;14.30;99.90;;;;;;4951018;29;20261;-79
2021/06/25 01:23:46;;;;;;;11.17;8.73;;;14.30;99.90;;;;;;4954480;29;20250;-78
2021/06/25 01:26:13;;;;;;;13.67;9.23;;;14.40;99.90;;;;;;4954410;29;20230;-78
2021/06/25 01:28:40;;;;;;;11.10;8.87;;;14.40;99.90;;;;;;4943801;29;20282;-78
2021/06/25 01:31:08;;;;;;;12.30;8.77;;;14.40;99.90;;;;;;4946366;29;20780;-78
2021/06/25 01:33:36;;;;;;;9.97;8.57;;;14.40;99.90;;;;;;4942557;29;20620;-78
2021/06/25 01:36:04;;;;;;;10.77;8.23;;;14.40;99.90;;;;;;4935191;29;20270;-80
2021/06/25 01:38:32;;;;;;;11.07;8.70;;;14.30;99.90;;;;;;4949747;29;20290;-78
2021/06/25 01:41:00;;;;;;;13.07;8.27;;;14.40;99.90;;;;;;4940263;28;20229;-78
2021/06/25 01:43:28;;;;;;;12.17;9.30;;;14.40;99.90;;;;;;4953054;29;20211;-81
2021/06/25 01:45:55;;;;;;;15.93;9.03;;;14.40;99.90;;;;;;4944686;29;20242;-81
2021/06/25 01:48:22;;;;;;;12.27;8.90;;;14.40;99.90;;;;;;4949524;29;20243;-80
2021/06/25 01:50:49;;;;;;;12.60;9.23;;;14.40;99.90;;;;;;4934881;29;20244;-80
2021/06/25 01:53:17;;;;;;;10.87;8.73;;;14.40;99.90;;;;;;4946709;29;20196;-80
2021/06/25 01:55:47;;;;;;;12.50;9.10;;;14.40;99.90;;;;;;4943202;29;20234;-80
2021/06/25 01:58:16;;;;;;;12.27;9.90;;;14.40;99.90;;;;;;4952234;29;20231;-80
2021/06/25 02:00:45;;;;;;;12.40;9.07;;;14.40;99.90;;;;;;4953543;29;20290;-80
2021/06/25 02:03:12;;;;;;;12.30;9.27;;;14.40;99.90;;;;;;4942954;29;20279;-80
2021/06/25 02:05:39;;;;;;;12.57;9.27;;;14.40;99.90;;;;;;4934417;29;20641;-80
2021/06/25 02:08:06;;;;;;;12.37;9.03;;;14.40;99.90;;;;;;4939037;29;20235;-80
2021/06/25 02:10:33;;;;;;;11.07;8.90;;;14.40;99.90;;;;;;4949486;29;20219;-80
2021/06/25 02:13:01;;;;;;;14.03;9.40;;;14.50;99.90;;;;;;4950397;29;20235;-80
2021/06/25 02:15:28;;;;;;;13.37;9.70;;;14.50;99.90;;;;;;4941870;29;20289;-80
2021/06/25 02:17:55;;;;;;;12.33;9.13;;;14.50;99.90;;;;;;4953726;29;20245;-80
2021/06/25 02:20:22;;;;;;;13.30;9.83;;;14.50;99.90;;;;;;4953847;29;20652;-79
2021/06/25 02:22:49;;;;;;;12.40;9.70;;;14.50;99.90;;;;;;4943943;28;20255;-79
2021/06/25 02:25:16;;;;;;;12.00;9.53;;;14.50;99.90;;;;;;4945410;29;20230;-79
2021/06/25 02:27:43;;;;;;;12.50;9.60;;;14.50;99.90;;;;;;4952576;29;20727;-78
2021/06/25 02:30:17;;;;;;;10.70;8.80;;;14.50;99.90;;;;;;4953106;29;20266;-79
2021/06/25 02:32:45;;;;;;;14.20;9.20;;;14.50;99.90;;;;;;4939250;29;20227;-79
2021/06/25 02:35:12;;;;;;;11.97;9.07;;;14.50;99.90;;;;;;4934415;29;20239;-80
2021/06/25 02:37:39;;;;;;;12.33;9.50;;;14.50;99.90;;;;;;4934453;29;20392;-79
2021/06/25 02:40:08;;;;;;;12.50;10.20;;;14.50;99.90;;;;;;4942233;29;20289;-80
2021/06/25 02:42:35;;;;;;;12.47;10.53;;;14.50;99.90;;;;;;4946478;29;20287;-79
2021/06/25 02:45:03;;;;;;;14.43;10.37;;;14.60;99.90;;;;;;4952235;29;20740;-79
2021/06/25 02:47:32;;;;;;;12.40;9.77;;;14.60;99.90;;;;;;4936251;29;20290;-79
2021/06/25 02:49:59;;;;;;;11.80;9.73;;;14.50;99.90;;;;;;4944368;29;20199;-79
2021/06/25 02:52:26;;;;;;;14.27;10.63;;;14.50;99.90;;;;;;4936249;29;20317;-79
2021/06/25 02:54:53;;;;;;;15.23;10.50;;;14.50;99.90;;;;;;4947062;29;20692;-79
2021/06/25 02:57:20;;;;;;;12.87;10.63;;;14.50;99.90;;;;;;4937836;29;20247;-79
2021/06/25 02:59:46;;;;;;;11.93;9.37;;;14.50;99.90;;;;;;4950914;29;20199;-79
2021/06/25 03:02:13;;;;;;;12.83;9.57;;;14.50;99.90;;;;;;4950985;29;20246;-79
2021/06/25 03:04:42;;;;;;;13.53;9.90;;;14.50;99.90;;;;;;4956282;29;20289;-79
2021/06/25 03:07:09;;;;;;;14.20;10.77;;;14.60;99.90;;;;;;4956152;29;20227;-79
2021/06/25 03:09:36;;;;;;;13.13;10.33;;;14.60;99.90;;;;;;4951319;29;20748;-79
2021/06/25 03:12:04;;;;;;;12.97;10.43;;;14.60;99.90;;;;;;4938465;29;20311;-79
2021/06/25 03:14:30;;;;;;;16.03;11.40;;;14.60;99.90;;;;;;4939191;29;20263;-79
2021/06/25 03:16:58;;;;;;;13.83;11.43;;;14.60;99.90;;;;;;4954369;29;20245;-79
2021/06/25 03:19:24;;;;;;;12.70;10.50;;;14.60;99.90;;;;;;4955466;29;20644;-79
2021/06/25 03:21:53;;;;;;;13.50;10.23;;;14.50;99.90;;;;;;4955275;29;20325;-80
2021/06/25 03:24:20;;;;;;;12.87;10.03;;;14.60;99.90;;;;;;4956561;29;20575;-79
2021/06/25 03:26:47;;;;;;;12.73;10.20;;;14.50;99.90;;;;;;4948028;29;20235;-79
2021/06/25 03:29:14;;;;;;;12.27;9.67;;;14.60;99.90;;;;;;4938539;29;20210;-79
2021/06/25 03:31:41;;;;;;;12.30;9.80;;;14.60;99.90;;;;;;4944004;29;20265;-79
2021/06/25 03:34:08;;;;;;;11.17;9.43;;;14.60;99.90;;;;;;4941150;29;20241;-79
2021/06/25 03:36:34;;;;;;;12.13;9.50;;;14.60;99.90;;;;;;4938871;29;20239;-79
2021/06/25 03:39:04;;;;;;;11.43;9.47;;;14.70;99.90;;;;;;4937685;29;20242;-80
2021/06/25 03:41:30;;;;;;;12.07;9.90;;;14.70;99.90;;;;;;4942364;28;20291;-79
2021/06/25 03:43:58;;;;;;;13.30;10.57;;;14.70;99.90;;;;;;4948543;29;20246;-79
2021/06/25 03:46:25;;;;;;;13.03;10.17;;;14.70;99.90;;;;;;4937831;29;20704;-80
2021/06/25 03:48:52;;;;;;;12.63;10.40;;;14.70;99.90;;;;;;4955505;29;20253;-79
2021/06/25 03:51:20;;;;;;;13.27;11.10;;;14.70;99.90;;;;;;4954192;29;20290;-80
2021/06/25 03:53:48;;;;;;;15.77;10.87;;;14.70;99.90;;;;;;4950799;29;20237;-79
2021/06/25 03:56:16;;;;;;;12.67;10.77;;;14.60;99.90;;;;;;4937067;29;20247;-80
2021/06/25 03:58:46;;;;;;;16.43;11.53;;;14.60;99.90;;;;;;4947944;29;20261;-79
2021/06/25 04:01:14;;;;;;;13.73;11.57;;;14.60;99.90;;;;;;4955750;29;20294;-79
2021/06/25 04:03:41;;;;;;;13.60;11.47;;;14.50;99.90;;;;;;4940046;29;20644;-79
2021/06/25 04:06:08;;;;;;;13.63;11.50;;;14.60;99.90;;;;;;4941734;29;20204;-79
2021/06/25 04:08:36;;;;;;;13.97;11.57;;;14.50;99.90;;;;;;4953447;29;20282;-79
2021/06/25 04:11:04;;;;;;;16.13;12.10;;;14.60;99.90;;;;;;4955025;29;20211;-79
2021/06/25 04:13:35;;;;;;;16.70;13.40;;;14.60;99.90;;;;;;4936945;29;20310;-79
2021/06/25 04:16:02;;;;;;;17.37;13.73;;;14.50;99.90;;;;;;4944939;29;20243;-80
2021/06/25 04:18:29;;;;;;;18.17;14.73;;;14.50;99.90;;;;;;4941019;29;20297;-79
2021/06/25 04:20:58;;;;;;;18.17;15.13;;;14.50;99.90;;;;;;4944795;29;20239;-79
2021/06/25 04:23:25;;;;;;;17.37;15.17;;;14.40;99.90;;;;;;4936777;29;20287;-80
2021/06/25 04:25:52;;;;;;;16.07;14.37;;;14.40;99.90;;;;;;4954093;29;20246;-80
2021/06/25 04:28:20;;;;;;;18.80;14.13;;;14.40;99.90;;;;;;4955669;29;20289;-79
2021/06/25 04:30:49;;;;;;;21.20;14.10;;;14.40;99.90;;;;;;4947298;29;20708;-80
2021/06/25 04:33:16;;;;;;;18.83;15.07;;;14.40;99.90;;;;;;4935914;29;20239;-80
2021/06/25 04:35:44;;;;;;;18.17;14.50;;;14.40;99.90;;;;;;4946154;29;20235;-80
2021/06/25 04:38:12;;;;;;;17.43;14.03;;;14.40;99.90;;;;;;4936382;29;20247;-80
2021/06/25 04:40:41;;;;;;;17.40;13.83;;;14.40;99.90;;;;;;4953621;29;20234;-80
2021/06/25 04:43:09;;;;;;;21.47;13.67;;;14.30;99.90;;;;;;4943368;29;20282;-81
2021/06/25 04:45:38;;;;;;;18.80;13.67;;;14.30;99.90;;;;;;4945476;29;20278;-80
2021/06/25 04:48:09;;;;;;;17.07;12.83;;;14.30;99.90;;;;;;4952443;29;20736;-80
2021/06/25 04:50:37;;;;;;;14.63;11.60;;;14.30;99.90;;;;;;4942972;29;20230;-81
2021/06/25 04:53:04;;;;;;;16.30;12.37;;;14.30;99.90;;;;;;4947858;29;21029;-80
2021/06/25 04:55:40;;;;;;;15.93;11.90;;;14.20;99.90;;;;;;4943409;29;20234;-81
2021/06/25 04:58:08;;;;;;;15.43;11.80;;;14.30;99.90;;;;;;4953224;29;20285;-80
2021/06/25 05:00:35;;;;;;;16.37;11.60;;;14.30;99.90;;;;;;4952409;29;20235;-80
2021/06/25 05:03:02;;;;;;;13.43;10.20;;;14.30;99.90;;;;;;4943623;29;20231;-80
2021/06/25 05:05:31;;;;;;;15.20;10.47;;;14.30;99.90;;;;;;4935846;29;20246;-78
2021/06/25 05:07:58;;;;;;;13.13;9.60;;;14.30;99.90;;;;;;4936015;29;20888;-79
2021/06/25 05:10:25;;;;;;;12.37;8.30;;;14.40;99.90;;;;;;4952273;29;20226;-79
2021/06/25 05:12:52;;;;;;;11.87;8.53;;;14.30;99.90;;;;;;4954004;29;20227;-79
2021/06/25 05:15:20;;;;;;;11.73;8.40;;;14.40;99.90;;;;;;4945570;28;20288;-79
2021/06/25 05:17:48;;;;;;;14.27;8.17;;;14.40;99.90;;;;;;4945530;29;20265;-80
2021/06/25 05:20:16;;;;;;;11.27;7.97;;;14.40;99.90;;;;;;4950110;29;20204;-79
2021/06/25 05:22:45;;;;;;;11.40;7.70;;;14.50;99.90;;;;;;4939884;29;20643;-79
2021/06/25 05:25:13;;;;;;;10.80;7.60;;;14.40;99.90;;;;;;4935322;29;20253;-79
2021/06/25 05:27:40;;;;;;;12.20;8.43;;;14.50;99.90;;;;;;4935825;29;20246;-80
2021/06/25 05:30:10;;;;;;;12.97;9.07;;;14.50;99.90;;;;;;4941585;29;20286;-80
2021/06/25 05:32:37;;;;;;;11.80;8.73;;;14.40;99.90;;;;;;4953587;29;20273;-80
2021/06/25 05:35:05;;;;;;;13.47;9.07;;;14.50;99.90;;;;;;4952062;29;20662;-79
2021/06/25 05:37:32;;;;;;;12.03;8.57;;;14.40;99.90;;;;;;4937823;29;21668;-79
2021/06/25 05:40:00;;;;;;;10.73;8.60;;;14.50;99.90;;;;;;4954250;29;20285;-79
2021/06/25 05:42:27;;;;;;;11.73;9.17;;;14.50;99.90;;;;;;4953630;29;20672;-79
2021/06/25 05:44:54;;;;;;;12.67;9.10;;;14.60;99.90;;;;;;4948620;29;20247;-78
2021/06/25 05:47:21;;;;;;;14.43;9.37;;;14.60;99.90;;;;;;4936560;29;20283;-79
2021/06/25 05:49:48;;;;;;;12.43;9.47;;;14.60;99.90;;;;;;4946866;29;20290;-79
2021/06/25 05:52:15;;;;;;;12.70;9.03;;;14.60;99.90;;;;;;4955864;28;20226;-79
2021/06/25 05:54:42;;;;;;;13.07;9.43;;;14.60;99.90;;;;;;4950229;29;20238;-79
2021/06/25 05:57:10;;;;;;;13.93;10.20;;;14.60;99.90;;;;;;4939030;28;20226;-79
2021/06/25 05:59:37;;;;;;;11.97;9.03;;;14.60;99.90;;;;;;4949038;29;20291;-79
2021/06/25 06:02:04;;;;;;;13.93;9.17;;;14.60;99.90;;;;;;4941837;29;20681;-79
2021/06/25 06:04:31;;;;;;;15.13;9.67;;;14.70;99.90;;;;;;4942465;29;20291;-79
2021/06/25 06:06:58;;;;;;;12.03;9.53;;;14.70;99.90;;;;;;4940652;29;20301;-79
2021/06/25 06:09:25;;;;;;;11.93;8.87;;;14.70;99.90;;;;;;4944949;29;20249;-79
2021/06/25 06:11:52;;;;;;;12.80;9.10;;;14.70;99.90;;;;;;4949708;29;20251;-80
2021/06/25 06:14:20;;;;;;;12.20;8.80;;;14.70;99.90;;;;;;4939968;28;20230;-80
2021/06/25 06:16:47;;;;;;;10.87;8.67;;;14.70;99.90;;;;;;4944300;29;20835;-79
2021/06/25 06:19:16;;;;;;;13.17;8.60;;;14.80;99.90;;;;;;4944807;29;20199;-79
2021/06/25 06:32:47;;;;;;;12.23;9.90;;;14.90;99.90;;;;;;4892668;29;20655;-80
2021/06/25 06:35:15;;;;;;;12.13;9.57;;;14.90;99.90;;;;;;4899799;29;20239;-81
2021/06/25 06:37:48;;;;;;;15.07;9.47;;;15.00;99.90;;;;;;4902259;29;20211;-81
2021/06/25 06:40:19;;;;;;;14.07;9.67;;;15.00;99.90;;;;;;4906772;29;20262;-80
2021/06/25 06:42:46;;;;;;;15.13;10.40;;;15.00;99.90;;;;;;4911713;29;20200;-81
2021/06/25 06:45:16;;;;;;;15.20;10.17;;;15.10;99.90;;;;;;4912590;29;20232;-81
2021/06/25 06:47:43;;;;;;;13.40;10.33;;;15.10;99.90;;;;;;4904624;29;20291;-80
2021/06/25 06:50:11;;;;;;;14.57;10.80;;;15.10;99.90;;;;;;4899588;29;20284;-80
2021/06/25 06:52:38;;;;;;;15.00;10.83;;;15.10;99.90;;;;;;4892984;29;20260;-80
2021/06/25 06:55:05;;;;;;;14.77;10.47;;;15.20;99.90;;;;;;4907770;29;20268;-80
2021/06/25 06:57:32;;;;;;;16.37;10.17;;;15.20;99.90;;;;;;4904501;29;20292;-80
2021/06/25 06:59:59;;;;;;;16.17;10.67;;;15.30;99.90;;;;;;4897187;29;20603;-79
2021/06/25 07:02:28;;;;;;;14.30;10.80;;;15.30;99.90;;;;;;4896550;29;20261;-79
2021/06/25 07:04:55;;;;;;;13.57;10.53;;;15.40;99.90;;;;;;4900516;29;20292;-78
2021/06/25 07:07:21;;;;;;;13.90;10.73;;;15.40;99.90;;;;;;4927268;29;20696;-80
2021/06/25 07:09:48;;;;;;;15.37;10.90;;;15.40;99.90;;;;;;4952126;29;20252;-79
2021/06/25 07:12:15;;;;;;;15.10;11.10;;;15.50;99.90;;;;;;4935150;29;20290;-80
2021/06/25 07:14:42;;;;;;;15.87;10.73;;;15.60;99.90;;;;;;4939894;29;20247;-80
2021/06/25 07:17:09;;;;;;;15.03;10.80;;;15.70;99.90;;;;;;4950504;29;20696;-81
2021/06/25 07:19:37;;;;;;;15.27;10.97;;;15.70;99.90;;;;;;4943842;29;20285;-80
2021/06/25 07:22:05;;;;;;;13.13;10.67;;;15.80;99.90;;;;;;4946375;28;20259;-79
2021/06/25 07:24:32;;;;;;;12.77;10.33;;;16.20;99.90;;;;;;4946531;29;20231;-80
2021/06/25 07:26:59;;;;;;;15.27;10.77;;;16.50;99.90;;;;;;4952271;29;20207;-80
2021/06/25 07:29:27;;;;;;;12.33;10.03;;;16.80;99.90;;;;;;4952265;29;20199;-80
2021/06/25 07:31:53;;;;;;;12.73;10.93;;;17.10;99.90;;;;;;4942326;29;20200;-80
2021/06/25 07:34:20;;;;;;;14.40;10.10;;;17.50;99.90;;;;;;4935376;29;20713;-80
2021/06/25 07:36:49;;;;;;;12.50;9.90;;;18.00;99.90;;;;;;4935809;29;20286;-80
2021/06/25 07:39:15;;;;;;;14.43;11.20;;;18.10;99.90;;;;;;4939061;29;20262;-81
2021/06/25 07:41:43;;;;;;;15.40;10.63;;;18.10;99.90;;;;;;4953350;29;20211;-80
2021/06/25 07:44:10;;;;;;;14.77;12.00;;;18.10;99.90;;;;;;4950229;29;20238;-80
2021/06/25 07:46:37;;;;;;;15.47;11.80;;;18.00;99.90;;;;;;4941403;29;20294;-79
2021/06/25 07:49:04;;;;;;;15.13;11.70;;;18.30;99.90;;;;;;4950206;29;20265;-79
2021/06/25 07:51:32;;;;;;;13.37;11.83;;;18.50;99.90;;;;;;4942540;29;20248;-79
2021/06/25 07:54:00;;;;;;;13.23;10.87;;;18.50;99.90;;;;;;4945179;29;20227;-79
2021/06/25 07:56:27;;;;;;;12.53;10.43;;;18.60;99.90;;;;;;4939568;29;20237;-79
2021/06/25 07:58:57;;;;;;;12.70;9.80;;;18.10;99.90;;;;;;4947665;28;20235;-76
2021/06/25 08:01:25;;;;;;;12.17;9.57;;;18.00;99.90;;;;;;4948958;29;20208;-79
2021/06/25 08:03:52;;;;;;;12.17;9.83;;;18.00;99.90;;;;;;4951464;28;20239;-79
2021/06/25 08:06:19;;;;;;;13.73;9.93;;;18.00;99.90;;;;;;4943632;29;20299;-79
2021/06/25 08:08:46;;;;;;;13.93;9.50;;;18.00;99.90;;;;;;4952574;29;20222;-79
2021/06/25 08:11:14;;;;;;;11.57;9.23;;;18.30;99.90;;;;;;4946512;29;20285;-79
2021/06/25 08:13:41;;;;;;;9.87;8.57;;;18.40;99.90;;;;;;4938254;29;20315;-79
2021/06/25 08:16:08;;;;;;;13.07;9.75;;;18.60;99.90;;;;;;4949743;29;20227;-79
2021/06/25 08:18:35;;;;;;;11.60;10.25;;;18.80;99.90;;;;;;4944201;29;20250;-79
2021/06/25 08:21:02;;;;;;;13.95;10.10;;;19.00;99.90;;;;;;4944076;29;20566;-78
2021/06/25 08:23:29;;;;;;;11.52;9.90;;;18.90;99.90;;;;;;4953368;29;20199;-79
2021/06/25 08:25:56;;;;;;;12.38;9.35;;;18.90;99.90;;;;;;4955323;29;20257;-80
2021/06/25 08:35:12;;;;;;;11.63;8.82;;;18.90;99.90;;;;;;4956576;29;20227;-79
2021/06/25 08:37:39;;;;;;;10.20;8.70;;;19.00;99.90;;;;;;4611219;29;9999592;-80
2021/06/25 08:40:08;;;;;;;9.85;8.20;;;19.50;99.90;;;;;;4935400;29;20243;-79
2021/06/25 08:42:38;;;;;;;8.77;7.88;;;19.80;99.90;;;;;;4954445;29;20207;-79
2021/06/25 08:45:06;;;;;;;9.85;8.82;;;20.70;99.90;;;;;;4938087;29;20204;-79
2021/06/25 08:47:39;;;;;;;8.70;7.80;;;21.80;99.90;;;;;;4938527;29;20199;-79
2021/06/25 08:50:08;;;;;;;9.00;8.10;;;22.30;99.90;;;;;;4941535;29;20715;-79
2021/06/25 08:52:37;;;;;;;10.02;9.02;;;22.50;99.90;;;;;;4935299;29;20247;-79
2021/06/25 08:55:05;;;;;;;9.93;8.98;;;22.70;99.90;;;;;;4948194;29;20302;-79
2021/06/25 08:57:34;;;;;;;9.65;8.75;;;22.90;99.90;;;;;;4954255;29;20253;-79
2021/06/25 09:00:01;;;;;;;9.30;7.70;;;22.90;99.90;;;;;;4952645;29;20199;-79
2021/06/25 09:05:51;;;;;;;5.40;4.90;;;22.90;99.90;;;;;;4937477;29;20238;-80
2021/06/25 09:08:27;;;;;;;5.28;4.28;;;22.50;99.90;;;;;;4935069;29;20204;-79
2021/06/25 09:10:57;;;;;;;5.75;4.70;;;21.80;99.90;;;;;;4936935;29;20216;-79
2021/06/25 09:13:33;;;;;;;5.40;4.63;;;21.30;99.90;;;;;;4953418;29;20226;-79
2021/06/25 09:16:00;;;;;;;5.72;4.60;;;20.90;99.90;;;;;;4953556;29;20234;-79
2021/06/25 09:18:27;;;;;;;4.90;4.43;;;20.70;99.90;;;;;;4952741;29;20238;-79
2021/06/25 09:20:54;;;;;;;5.60;4.55;;;20.60;99.90;;;;;;4953207;29;20250;-79
2021/06/25 09:23:27;;;;;;;4.30;3.90;;;20.10;99.90;;;;;;4952958;29;20231;-79
2021/06/25 09:25:57;;;;;;;6.22;4.45;;;19.70;99.90;;;;;;4953665;29;20286;-78
2021/06/25 09:28:26;;;;;;;6.28;4.60;;;19.20;99.90;;;;;;4943081;29;20230;-79
2021/06/25 09:30:54;;;;;;;5.90;4.90;;;19.10;99.90;;;;;;4942774;29;20235;-79
2021/06/25 09:33:22;;;;;;;7.43;4.82;;;19.20;99.90;;;;;;4947133;29;20319;-79
2021/06/25 09:35:53;;;;;;;5.15;4.65;;;19.90;99.90;;;;;;4949115;29;20238;-79
2021/06/25 09:38:35;;;;;;;6.60;4.65;;;20.10;99.90;;;;;;4947371;29;20208;-79
2021/06/25 09:41:02;;;;;;;5.85;4.60;;;20.10;99.90;;;;;;4948441;29;20669;-79
2021/06/25 09:43:34;;;;;;;6.53;4.30;;;20.60;99.90;;;;;;4952183;29;20230;-79
2021/06/25 09:46:03;;;;;;;8.20;4.82;;;21.00;99.90;;;;;;4941729;29;20203;-78
2021/06/25 09:48:55;;;;;;;5.10;4.55;;;21.00;99.90;;;;;;4938660;29;20285;-79
2021/06/25 09:51:22;;;;;;;7.07;4.20;;;21.40;99.90;;;;;;4944987;29;20230;-79
2021/06/25 09:54:12;;;;;;;8.90;3.92;;;21.60;99.90;;;;;;4952948;29;20305;-79
2021/06/25 09:56:45;;;;;;;5.93;3.80;;;21.40;99.90;;;;;;4952872;29;20703;-79
2021/06/25 09:59:37;;;;;;;4.60;3.90;;;21.60;99.90;;;;;;4947697;28;20258;-78
2021/06/25 10:02:28;;;;;;;6.28;4.00;;;22.20;99.90;;;;;;4948317;28;20209;-79
2021/06/25 10:04:56;;;;;;;5.28;4.25;;;23.20;99.90;;;;;;4943551;29;20196;-79
2021/06/25 10:07:25;;;;;;;5.55;4.30;;;23.90;99.90;;;;;;4940630;29;20290;-79
2021/06/25 10:09:55;;;;;;;6.47;4.18;;;23.50;99.90;;;;;;4941424;29;20205;-79
2021/06/25 10:12:24;;;;;;;7.72;4.93;;;23.50;99.90;;;;;;4944720;29;20227;-79
2021/06/25 10:14:53;;;;;;;5.25;4.18;;;23.20;99.90;;;;;;4947217;29;20310;-79
2021/06/25 10:17:20;;;;;;;7.95;4.95;;;23.10;99.90;;;;;;4940550;29;20311;-79
2021/06/25 10:19:48;;;;;;;6.30;4.72;;;22.80;99.90;;;;;;4948379;29;20600;-79
2021/06/25 10:22:17;;;;;;;8.00;4.60;;;22.60;99.90;;;;;;4950474;28;20247;-79
2021/06/25 10:24:48;;;;;;;5.85;4.82;;;23.10;99.90;;;;;;4948593;29;20287;-79
2021/06/25 10:27:19;;;;;;;7.57;5.20;;;22.80;99.90;;;;;;4938181;29;20249;-79
2021/06/25 10:29:46;;;;;;;6.55;5.85;;;22.60;99.90;;;;;;4952538;29;20207;-79
2021/06/25 10:32:16;;;;;;;6.60;4.97;;;22.40;99.90;;;;;;4949660;29;20290;-79
2021/06/25 10:34:44;;;;;;;6.40;5.35;;;22.70;99.90;;;;;;4949511;29;20222;-79
2021/06/25 10:37:14;;;;;;;7.65;5.40;;;22.40;99.90;;;;;;4604027;29;9999633;-79
2021/06/25 10:39:42;;;;;;;6.13;5.53;;;22.40;99.90;;;;;;4934391;29;20630;-79
2021/06/25 10:42:10;;;;;;;7.07;5.82;;;23.10;99.90;;;;;;4949500;28;20218;-79
2021/06/25 10:44:42;;;;;;;7.65;5.70;;;23.70;99.90;;;;;;4952185;29;20199;-79
2021/06/25 10:47:20;;;;;;;6.35;5.22;;;23.80;99.90;;;;;;4952799;29;20234;-79
2021/06/25 10:50:30;;;;;;;6.75;5.88;;;24.60;99.90;;;;;;4952132;29;20755;-80
2021/06/25 10:53:21;;;;;;;6.90;5.50;;;23.80;99.90;;;;;;4944294;29;20751;-79
2021/06/25 10:56:06;;;;;;;6.85;5.93;;;23.70;99.90;;;;;;4919299;29;20214;-79
2021/06/25 10:58:35;;;;;;;6.75;6.05;;;24.20;99.90;;;;;;4934067;29;20746;-79
2021/06/25 11:01:05;;;;;;;6.80;5.88;;;23.60;99.90;;;;;;4936472;29;20844;-79
2021/06/25 11:03:42;;;;;;;7.13;5.30;;;23.20;99.90;;;;;;4951840;29;20209;-79
2021/06/25 11:06:25;;;;;;;9.70;6.60;;;23.60;99.90;;;;;;4951582;29;20198;-79
2021/06/25 11:09:01;;;;;;;8.40;6.50;;;23.20;99.90;;;;;;4936681;28;20651;-79
2021/06/25 11:11:28;;;;;;;7.88;6.00;;;22.60;99.90;;;;;;4942123;29;20665;-79
2021/06/25 11:13:56;;;;;;;7.63;5.60;;;22.60;99.90;;;;;;4955221;28;20226;-79
2021/06/25 11:16:24;;;;;;;6.65;5.68;;;23.00;99.90;;;;;;4955336;29;20207;-79
2021/06/25 11:18:51;;;;;;;5.82;4.90;;;23.20;99.90;;;;;;4955674;29;20736;-79
2021/06/25 11:21:19;;;;;;;6.68;5.00;;;23.30;99.90;;;;;;4949994;29;21180;-80
2021/06/25 11:23:48;;;;;;;6.00;4.32;;;23.40;99.90;;;;;;4950102;29;20216;-79
2021/06/25 11:26:26;;;;;;;7.05;5.18;;;23.90;99.90;;;;;;4940213;29;20286;-79
2021/06/25 11:28:54;;;;;;;7.13;4.20;;;24.40;99.90;;;;;;4944056;29;20207;-79
2021/06/25 11:31:25;;;;;;;5.72;4.78;;;25.30;99.90;;;;;;4936313;29;20716;-79
2021/06/25 11:34:04;;;;;;;6.60;4.60;;;24.90;99.90;;;;;;4936310;29;20259;-80
2021/06/25 11:36:38;;;;;;;6.03;4.55;;;24.10;99.90;;;;;;4946637;29;20274;-79
2021/06/25 11:39:20;;;;;;;8.50;5.10;;;24.20;99.90;;;;;;4954042;29;20222;-80
2021/06/25 11:41:51;;;;;;;6.53;4.70;;;24.10;99.90;;;;;;4952431;29;20219;-79
2021/06/25 11:44:20;;;;;;;7.90;4.65;;;23.50;99.90;;;;;;4955772;29;20278;-80
2021/06/25 11:46:55;;;;;;;6.90;4.78;;;24.30;99.90;;;;;;4954367;29;20259;-80
2021/06/25 11:49:22;;;;;;;5.70;4.95;;;24.20;99.90;;;;;;4954093;29;20202;-80
2021/06/25 11:51:49;;;;;;;5.53;4.82;;;23.70;99.90;;;;;;4954583;29;20674;-79
2021/06/25 11:54:20;;;;;;;10.50;4.70;;;23.70;99.90;;;;;;4954173;29;20326;-79
2021/06/25 11:56:47;;;;;;;4.85;4.38;;;23.90;99.90;;;;;;4954065;29;20293;-79
2021/06/25 11:59:16;;;;;;;5.32;4.43;;;24.70;99.90;;;;;;4935928;29;20242;-79
2021/06/25 12:01:55;;;;;;;6.35;5.20;;;24.70;99.90;;;;;;4950303;29;20266;-79
2021/06/25 12:04:39;;;;;;;6.03;4.93;;;24.20;99.90;;;;;;4948406;29;20282;-79
2021/06/25 12:07:08;;;;;;;6.90;4.90;;;23.90;99.90;;;;;;4946347;29;20286;-79
2021/06/25 12:09:43;;;;;;;6.47;4.60;;;24.60;99.90;;;;;;4951309;29;20238;-80
2021/06/25 12:12:18;;;;;;;5.75;4.35;;;25.30;99.90;;;;;;4950542;29;20230;-80
2021/06/25 12:14:47;;;;;;;5.90;4.32;;;26.30;99.90;;;;;;4948918;29;20803;-79
2021/06/25 12:17:16;;;;;;;7.50;4.47;;;26.80;99.90;;;;;;4942567;29;20275;-79
2021/06/25 12:19:56;;;;;;;7.82;4.65;;;25.60;99.90;;;;;;4950117;29;20231;-80
2021/06/25 12:22:23;;;;;;;7.40;4.05;;;26.30;99.90;;;;;;4950674;29;20317;-80
2021/06/25 12:24:51;;;;;;;4.53;4.05;;;26.50;99.90;;;;;;4949460;28;20269;-80
2021/06/25 12:27:18;;;;;;;4.82;3.60;;;26.10;99.90;;;;;;4952079;29;20309;-80
2021/06/25 12:29:46;;;;;;;5.05;4.00;;;25.90;99.90;;;;;;4953635;29;20211;-80
2021/06/25 12:32:21;;;;;;;6.32;3.50;;;24.70;99.90;;;;;;4950228;29;20333;-79
2021/06/25 12:34:48;;;;;;;3.47;3.05;;;24.30;99.90;;;;;;4952452;29;20318;-79
2021/06/25 12:37:15;;;;;;;5.97;3.42;;;23.90;99.90;;;;;;4604329;29;10000251;-79
2021/06/25 12:39:52;;;;;;;5.25;3.50;;;23.60;99.90;;;;;;4941109;29;20211;-79
2021/06/25 12:42:42;;;;;;;6.53;3.75;;;23.50;99.90;;;;;;4937511;29;20214;-80
2021/06/25 12:45:40;;;;;;;4.07;3.72;;;23.60;99.90;;;;;;4937521;29;20204;-80
2021/06/25 12:48:12;;;;;;;5.00;4.20;;;23.90;99.90;;;;;;4931187;29;20673;-80
2021/06/25 12:50:41;;;;;;;5.90;3.83;;;23.50;99.90;;;;;;4940451;29;20239;-79
2021/06/25 12:53:17;;;;;;;8.70;4.55;;;23.10;99.90;;;;;;4951476;29;20196;-79
2021/06/25 12:55:48;;;;;;;8.18;4.70;;;23.10;99.90;;;;;;4950607;29;20309;-80
2021/06/25 12:58:16;;;;;;;6.72;4.47;;;22.80;99.90;;;;;;4952322;29;20253;-79
2021/06/25 13:00:45;;;;;;;5.80;4.40;;;22.00;99.90;;;;;;4954857;29;20246;-78
2021/06/25 13:03:14;;;;;;;5.72;4.50;;;22.00;99.90;;;;;;4956022;29;20580;-79
2021/06/25 13:05:40;;;;;;;5.82;4.57;;;22.20;99.90;;;;;;4950781;28;20207;-79
2021/06/25 13:08:18;;;;;;;6.43;4.32;;;22.00;99.90;;;;;;4956467;28;20238;-79